Time;durP1;ratioP1;P1;durP2;ratioP2;P2;SDS_P1;SDS_P2;PMS_P1;PMS_P2;Temp;Humidity;BMP_temperature;BMP_pressure;BME280_temperature;BME280_humidity;BME280_pressure;Samples;Min_cycle;Max_cycle;Signal;HPM_P1;HPM_P2
2023/04/18 00:01:13;;;;;;;11.20;8.98;;;8.00;99.90;;;;;;4993860;28;20050;-64
2023/04/18 00:03:40;;;;;;;10.55;8.80;;;8.00;99.90;;;;;;4976458;28;20085;-64
2023/04/18 00:06:06;;;;;;;11.30;7.75;;;8.00;99.90;;;;;;4993389;28;20105;-65
2023/04/18 00:08:33;;;;;;;12.90;8.80;;;8.00;99.90;;;;;;4975965;28;20370;-64
2023/04/18 00:10:59;;;;;;;11.23;8.55;;;8.00;99.90;;;;;;4993407;28;20061;-64
2023/04/18 00:13:34;;;;;;;11.77;10.07;;;7.90;99.90;;;;;;4976041;28;20051;-64
2023/04/18 00:16:01;;;;;;;10.50;8.57;;;7.90;99.90;;;;;;4993085;28;20133;-64
2023/04/18 00:18:27;;;;;;;15.13;8.70;;;7.90;99.90;;;;;;4993417;28;20046;-64
2023/04/18 00:20:53;;;;;;;12.32;10.05;;;7.90;99.90;;;;;;4993248;28;20050;-64
2023/04/18 00:23:21;;;;;;;14.25;9.32;;;7.80;99.90;;;;;;4993680;28;20042;-64
2023/04/18 00:25:48;;;;;;;11.52;8.60;;;7.80;99.90;;;;;;4996734;28;20085;-64
2023/04/18 00:28:14;;;;;;;13.65;9.68;;;7.80;99.90;;;;;;4979732;28;20054;-64
2023/04/18 00:30:40;;;;;;;13.18;9.95;;;7.70;99.90;;;;;;4990331;28;20173;-64
2023/04/18 00:33:07;;;;;;;13.20;10.02;;;7.70;99.90;;;;;;4977356;28;20447;-64
2023/04/18 00:35:33;;;;;;;13.43;9.80;;;7.60;99.90;;;;;;4976607;28;20055;-64
2023/04/18 00:38:00;;;;;;;12.10;9.05;;;7.60;99.90;;;;;;4976467;28;20058;-64
2023/04/18 00:40:26;;;;;;;12.18;9.73;;;7.50;99.90;;;;;;4977517;28;20081;-65
2023/04/18 00:42:52;;;;;;;14.57;9.23;;;7.50;99.90;;;;;;4977178;28;20151;-64
2023/04/18 00:45:19;;;;;;;10.57;8.98;;;7.50;99.90;;;;;;4977618;28;20061;-64
2023/04/18 00:47:45;;;;;;;11.95;9.70;;;7.40;99.90;;;;;;4977132;28;20069;-64
2023/04/18 00:50:12;;;;;;;12.75;9.38;;;7.30;99.90;;;;;;4977230;28;20141;-64
2023/04/18 00:52:39;;;;;;;10.00;8.52;;;7.30;99.90;;;;;;4977378;28;20050;-64
2023/04/18 00:55:06;;;;;;;11.98;8.85;;;7.20;99.90;;;;;;4977419;28;20117;-64
2023/04/18 00:57:33;;;;;;;14.25;8.63;;;7.20;99.90;;;;;;4977390;28;20088;-64
2023/04/18 01:00:01;;;;;;;13.55;9.82;;;7.20;99.90;;;;;;4975993;28;20415;-64
2023/04/18 01:02:30;;;;;;;12.15;9.90;;;7.10;99.90;;;;;;4959720;28;20469;-63
2023/04/18 01:04:59;;;;;;;13.40;9.20;;;7.00;99.90;;;;;;4976974;28;20119;-63
2023/04/18 01:07:26;;;;;;;14.20;10.50;;;7.00;99.90;;;;;;4977287;28;20047;-63
2023/04/18 01:09:53;;;;;;;12.00;9.90;;;7.00;99.90;;;;;;4976826;28;20082;-63
2023/04/18 01:12:19;;;;;;;12.55;9.15;;;6.90;99.90;;;;;;4977003;28;20047;-63
2023/04/18 01:14:45;;;;;;;11.45;10.15;;;6.90;99.90;;;;;;4976977;28;20070;-64
2023/04/18 01:17:12;;;;;;;10.38;8.90;;;6.90;99.90;;;;;;4995825;28;20061;-63
2023/04/18 01:19:39;;;;;;;13.32;9.73;;;6.80;99.90;;;;;;4996364;28;20053;-64
2023/04/18 01:22:08;;;;;;;12.82;9.98;;;6.80;99.90;;;;;;4996224;28;20068;-63
2023/04/18 01:24:34;;;;;;;13.00;9.80;;;6.70;99.90;;;;;;4996158;28;20061;-63
2023/04/18 01:27:04;;;;;;;13.43;9.73;;;6.70;99.90;;;;;;4996330;28;20058;-63
2023/04/18 01:29:31;;;;;;;12.05;9.38;;;6.70;99.90;;;;;;4996191;28;20182;-63
2023/04/18 01:31:57;;;;;;;12.95;9.40;;;6.60;99.90;;;;;;4995801;28;20061;-63
2023/04/18 01:34:23;;;;;;;13.32;10.73;;;6.60;99.90;;;;;;4996009;28;20152;-63
2023/04/18 01:36:49;;;;;;;10.30;8.63;;;6.50;99.90;;;;;;4993795;28;20085;-63
2023/04/18 01:39:17;;;;;;;13.07;9.35;;;6.50;99.90;;;;;;4996212;28;20446;-63
2023/04/18 01:41:43;;;;;;;13.52;10.77;;;6.50;99.90;;;;;;4996184;28;20051;-63
2023/04/18 01:44:09;;;;;;;12.90;9.82;;;6.50;99.90;;;;;;4994955;28;20508;-63
2023/04/18 01:46:36;;;;;;;12.25;9.93;;;6.50;99.90;;;;;;4996036;28;20043;-64
2023/04/18 01:49:03;;;;;;;12.13;9.05;;;6.40;99.90;;;;;;4995221;28;20384;-64
2023/04/18 01:51:30;;;;;;;12.18;9.20;;;6.40;99.90;;;;;;4978553;28;20061;-64
2023/04/18 01:53:56;;;;;;;14.27;9.82;;;6.30;99.90;;;;;;4995756;28;20054;-64
2023/04/18 01:56:22;;;;;;;13.82;9.90;;;6.40;99.90;;;;;;4995667;28;20089;-64
2023/04/18 01:58:49;;;;;;;12.48;8.98;;;6.30;99.90;;;;;;4995702;28;20046;-64
2023/04/18 02:01:15;;;;;;;12.10;9.73;;;6.30;99.90;;;;;;4995225;28;20091;-64
2023/04/18 02:03:41;;;;;;;14.18;10.07;;;6.30;99.90;;;;;;4978152;28;20115;-64
2023/04/18 02:06:07;;;;;;;12.88;9.80;;;6.30;99.90;;;;;;4995386;28;20046;-64
2023/04/18 02:08:34;;;;;;;11.75;9.25;;;6.30;99.90;;;;;;4995308;28;20046;-64
2023/04/18 02:11:01;;;;;;;11.77;9.40;;;6.30;99.90;;;;;;4995082;28;20473;-64
2023/04/18 02:13:27;;;;;;;14.07;9.68;;;6.30;99.90;;;;;;4995158;28;20434;-64
2023/04/18 02:15:54;;;;;;;13.13;9.35;;;6.30;99.90;;;;;;4993891;28;20086;-64
2023/04/18 02:18:23;;;;;;;12.35;9.40;;;6.20;99.90;;;;;;4994904;28;20104;-64
2023/04/18 02:20:50;;;;;;;12.45;9.63;;;6.20;99.90;;;;;;4993775;28;20078;-64
2023/04/18 02:23:17;;;;;;;13.98;9.88;;;6.10;99.90;;;;;;4993718;28;20159;-64
2023/04/18 02:25:43;;;;;;;12.27;9.68;;;6.10;99.90;;;;;;4994731;28;20139;-64
2023/04/18 02:28:09;;;;;;;13.77;9.63;;;6.10;99.90;;;;;;4994991;28;20085;-64
2023/04/18 02:30:36;;;;;;;13.52;10.68;;;6.00;99.90;;;;;;4993735;28;20088;-63
2023/04/18 02:33:02;;;;;;;12.57;9.25;;;6.00;99.90;;;;;;4993494;28;20358;-64
2023/04/18 02:35:28;;;;;;;13.38;9.90;;;6.00;99.90;;;;;;4994931;28;20054;-64
2023/04/18 02:37:55;;;;;;;12.82;9.95;;;6.00;99.90;;;;;;4994813;28;20403;-64
2023/04/18 02:40:21;;;;;;;13.95;9.90;;;6.00;99.90;;;;;;4994456;28;20363;-64
2023/04/18 02:42:47;;;;;;;14.88;9.57;;;6.00;99.90;;;;;;4994662;28;20528;-64
2023/04/18 02:45:13;;;;;;;14.27;10.07;;;6.00;99.90;;;;;;4994795;28;20078;-63
2023/04/18 02:47:41;;;;;;;10.32;9.30;;;6.00;99.90;;;;;;4994001;28;20460;-64
2023/04/18 02:50:08;;;;;;;13.23;8.93;;;6.00;99.90;;;;;;4994685;28;20106;-63
2023/04/18 02:52:34;;;;;;;12.82;9.95;;;6.00;99.90;;;;;;4993367;28;20050;-63
2023/04/18 02:55:00;;;;;;;12.07;9.93;;;6.00;99.90;;;;;;4994211;28;20133;-63
2023/04/18 02:57:26;;;;;;;12.07;9.65;;;6.00;99.90;;;;;;4993288;28;20093;-63
2023/04/18 02:59:53;;;;;;;11.90;9.88;;;6.00;99.90;;;;;;4994401;28;20090;-64
2023/04/18 03:02:19;;;;;;;14.35;11.20;;;6.00;99.90;;;;;;4994151;28;20053;-63
2023/04/18 03:04:46;;;;;;;11.98;10.60;;;5.90;99.90;;;;;;4993054;28;20046;-65
2023/04/18 03:07:12;;;;;;;12.77;9.95;;;6.00;99.90;;;;;;4994530;28;20085;-64
2023/04/18 03:09:39;;;;;;;11.70;9.50;;;6.00;99.90;;;;;;4994060;28;20137;-64
2023/04/18 03:12:05;;;;;;;14.73;11.13;;;5.90;99.90;;;;;;4994374;28;20065;-64
2023/04/18 03:14:31;;;;;;;13.88;10.18;;;6.00;99.90;;;;;;4993082;28;20113;-64
2023/04/18 03:16:57;;;;;;;11.25;9.68;;;6.00;99.90;;;;;;5011181;28;20061;-64
2023/04/18 03:19:24;;;;;;;13.63;10.18;;;6.00;99.90;;;;;;5013810;28;20157;-66
2023/04/18 03:21:50;;;;;;;13.35;10.50;;;6.00;99.90;;;;;;4996677;28;20053;-64
2023/04/18 03:24:16;;;;;;;13.48;9.32;;;6.00;99.90;;;;;;5013548;28;20338;-64
2023/04/18 03:26:42;;;;;;;13.32;9.15;;;6.00;99.90;;;;;;5013392;28;20405;-64
2023/04/18 03:29:09;;;;;;;14.65;10.63;;;6.00;99.90;;;;;;4995790;28;20081;-64
2023/04/18 03:31:35;;;;;;;13.98;10.45;;;6.00;99.90;;;;;;5013523;28;20112;-64
2023/04/18 03:34:01;;;;;;;14.05;10.98;;;6.10;99.90;;;;;;4996292;28;20049;-64
2023/04/18 03:36:28;;;;;;;13.95;10.52;;;6.20;99.90;;;;;;4995835;28;20085;-64
2023/04/18 03:38:54;;;;;;;15.02;11.60;;;6.20;99.90;;;;;;5012418;28;20057;-64
2023/04/18 03:41:20;;;;;;;15.73;10.93;;;6.20;99.90;;;;;;4996114;28;20133;-64
2023/04/18 03:43:46;;;;;;;14.07;10.55;;;6.20;99.90;;;;;;5013328;28;20081;-64
2023/04/18 03:46:13;;;;;;;16.08;12.10;;;6.20;99.90;;;;;;4995843;28;20081;-64
2023/04/18 03:48:39;;;;;;;14.68;10.57;;;6.20;99.90;;;;;;4995626;28;20045;-64
2023/04/18 03:51:05;;;;;;;15.70;11.30;;;6.20;99.90;;;;;;5013311;28;20221;-63
2023/04/18 03:53:32;;;;;;;13.65;9.43;;;6.30;99.90;;;;;;5013267;28;20416;-64
2023/04/18 03:55:58;;;;;;;13.95;10.65;;;6.20;99.90;;;;;;4995681;28;20350;-64
2023/04/18 03:58:24;;;;;;;14.98;10.60;;;6.30;99.90;;;;;;5012770;28;20045;-64
2023/04/18 04:00:51;;;;;;;18.00;12.02;;;6.30;99.90;;;;;;4989317;28;20050;-64
2023/04/18 04:03:18;;;;;;;15.93;10.75;;;6.30;99.90;;;;;;4993337;28;20450;-64
2023/04/18 04:05:44;;;;;;;14.52;10.63;;;6.30;99.90;;;;;;4993909;28;20122;-64
2023/04/18 04:08:10;;;;;;;15.32;10.98;;;6.30;99.90;;;;;;4993743;28;20089;-63
2023/04/18 04:10:36;;;;;;;17.80;11.10;;;6.20;99.90;;;;;;4993603;28;20058;-64
2023/04/18 04:13:03;;;;;;;15.88;10.05;;;6.30;99.90;;;;;;4993655;28;20485;-64
2023/04/18 04:15:29;;;;;;;13.73;11.40;;;6.30;99.90;;;;;;4993170;28;20089;-64
2023/04/18 04:17:55;;;;;;;14.68;10.82;;;6.30;99.90;;;;;;4993468;28;20138;-64
2023/04/18 04:20:23;;;;;;;14.95;11.43;;;6.30;99.90;;;;;;4976761;28;20050;-64
2023/04/18 04:22:52;;;;;;;16.25;12.13;;;6.30;99.90;;;;;;4993208;28;20046;-64
2023/04/18 04:25:18;;;;;;;14.52;10.57;;;6.30;99.90;;;;;;4993769;28;20050;-64
2023/04/18 04:27:45;;;;;;;16.27;11.18;;;6.30;99.90;;;;;;4993296;28;20089;-64
2023/04/18 04:33:34;;;;;;;14.70;10.82;;;6.30;99.90;;;;;;4976103;28;20046;-64
2023/04/18 04:36:01;;;;;;;14.75;9.80;;;6.30;99.90;;;;;;4976160;28;20125;-64
2023/04/18 04:38:29;;;;;;;16.90;12.48;;;6.40;99.90;;;;;;4993937;28;20093;-64
2023/04/18 04:40:57;;;;;;;14.80;11.27;;;6.40;99.90;;;;;;4993744;28;20058;-63
2023/04/18 04:43:24;;;;;;;14.07;11.23;;;6.40;99.90;;;;;;4976295;28;20050;-64
2023/04/18 04:45:51;;;;;;;14.13;10.40;;;6.40;99.90;;;;;;4945997;28;20051;-64
2023/04/18 04:48:19;;;;;;;14.07;10.07;;;6.40;99.90;;;;;;4956679;28;20043;-64
2023/04/18 04:50:54;;;;;;;14.05;11.82;;;6.40;99.90;;;;;;4956883;28;20178;-64
2023/04/18 04:53:21;;;;;;;13.73;10.07;;;6.50;99.90;;;;;;4956550;28;20055;-64
2023/04/18 04:55:47;;;;;;;13.98;9.98;;;6.50;99.90;;;;;;4973398;28;20459;-64
2023/04/18 04:58:14;;;;;;;16.25;11.27;;;6.50;99.90;;;;;;4973689;28;20047;-67
2023/04/18 05:00:40;;;;;;;15.40;10.77;;;6.50;99.90;;;;;;4973101;28;20054;-64
2023/04/18 05:03:07;;;;;;;14.40;10.45;;;6.60;99.90;;;;;;4970225;28;20066;-64
2023/04/18 05:05:42;;;;;;;14.90;10.15;;;6.60;99.90;;;;;;4955935;28;20050;-64
2023/04/18 05:08:08;;;;;;;12.80;9.13;;;6.60;99.90;;;;;;4973292;28;20058;-65
2023/04/18 05:10:37;;;;;;;13.55;9.18;;;6.60;99.90;;;;;;4975076;28;20046;-65
2023/04/18 05:13:04;;;;;;;15.32;9.70;;;6.60;99.90;;;;;;4960351;28;20309;-64
2023/04/18 05:15:30;;;;;;;13.75;10.60;;;6.70;99.90;;;;;;4965779;28;20100;-64
2023/04/18 05:17:57;;;;;;;14.45;10.15;;;6.70;99.90;;;;;;4996084;28;20392;-64
2023/04/18 05:20:23;;;;;;;15.98;12.05;;;6.80;99.90;;;;;;4996490;28;20086;-64
2023/04/18 05:22:50;;;;;;;16.05;11.07;;;6.80;99.90;;;;;;4979489;28;20178;-64
2023/04/18 05:25:16;;;;;;;14.07;11.02;;;6.90;99.90;;;;;;4961347;28;20050;-64
2023/04/18 05:27:43;;;;;;;15.95;12.85;;;6.90;99.90;;;;;;4977237;28;20046;-64
2023/04/18 05:30:11;;;;;;;15.77;11.07;;;7.00;99.90;;;;;;4959752;28;20062;-65
2023/04/18 05:32:38;;;;;;;13.02;10.05;;;7.00;99.90;;;;;;4976916;28;20118;-63
2023/04/18 05:35:05;;;;;;;16.33;11.23;;;6.90;99.90;;;;;;4976430;28;20380;-64
2023/04/18 05:37:32;;;;;;;14.40;11.00;;;7.00;99.90;;;;;;4974626;28;20076;-64
2023/04/18 05:39:58;;;;;;;16.52;14.13;;;7.10;99.90;;;;;;4975831;28;20057;-64
2023/04/18 05:42:24;;;;;;;16.75;11.30;;;7.00;99.90;;;;;;4959329;28;20050;-65
2023/04/18 05:44:52;;;;;;;16.48;10.60;;;7.00;99.90;;;;;;4959103;28;20047;-64
2023/04/18 05:47:18;;;;;;;17.17;11.40;;;7.00;99.90;;;;;;4976238;28;20078;-64
2023/04/18 05:49:44;;;;;;;14.05;10.63;;;7.00;99.90;;;;;;4958709;28;20054;-64
2023/04/18 05:52:12;;;;;;;16.17;11.70;;;7.00;99.90;;;;;;4958486;28;20062;-64
2023/04/18 05:54:38;;;;;;;17.98;11.85;;;7.00;99.90;;;;;;4976004;28;20138;-64
2023/04/18 05:57:04;;;;;;;16.15;11.32;;;7.00;99.90;;;;;;4975689;28;20450;-64
2023/04/18 05:59:31;;;;;;;15.27;11.77;;;7.00;99.90;;;;;;4975627;28;20066;-64
2023/04/18 06:01:57;;;;;;;14.93;11.70;;;7.00;99.90;;;;;;4943141;28;20113;-64
2023/04/18 06:04:23;;;;;;;16.85;11.20;;;7.10;99.90;;;;;;4976356;28;20086;-64
2023/04/18 06:06:50;;;;;;;15.38;11.20;;;7.10;99.90;;;;;;4959242;28;20127;-64
2023/04/18 06:09:16;;;;;;;14.15;10.75;;;7.10;99.90;;;;;;4974738;28;20093;-64
2023/04/18 06:11:42;;;;;;;14.57;10.85;;;7.10;99.90;;;;;;4973710;28;20078;-66
2023/04/18 06:14:08;;;;;;;16.33;11.48;;;7.10;99.90;;;;;;4979527;28;20118;-65
2023/04/18 06:16:36;;;;;;;14.75;11.48;;;7.10;99.90;;;;;;4989354;28;20054;-64
2023/04/18 06:19:02;;;;;;;15.27;10.63;;;7.20;99.90;;;;;;4994395;28;20086;-64
2023/04/18 06:21:29;;;;;;;15.02;11.95;;;7.10;99.90;;;;;;4982790;28;20047;-64
2023/04/18 06:23:55;;;;;;;13.98;10.77;;;7.20;99.90;;;;;;4973189;28;20050;-65
2023/04/18 06:26:21;;;;;;;16.08;11.63;;;7.20;99.90;;;;;;4973616;28;20046;-65
2023/04/18 06:28:48;;;;;;;15.63;12.10;;;7.20;99.90;;;;;;4991909;28;20043;-64
2023/04/18 06:31:14;;;;;;;13.40;10.23;;;7.20;99.90;;;;;;4975404;28;20334;-64
2023/04/18 06:33:40;;;;;;;16.20;12.50;;;7.20;99.90;;;;;;4975261;28;20085;-64
2023/04/18 06:36:07;;;;;;;16.85;11.50;;;7.40;99.90;;;;;;4975452;28;20097;-65
2023/04/18 06:38:34;;;;;;;15.43;12.07;;;7.40;99.90;;;;;;4975096;28;20520;-65
2023/04/18 06:41:02;;;;;;;15.10;11.23;;;7.40;99.90;;;;;;4972271;28;20050;-64
2023/04/18 06:43:29;;;;;;;15.80;11.50;;;7.50;99.90;;;;;;4973541;28;20042;-66
2023/04/18 06:45:55;;;;;;;14.70;11.40;;;7.50;99.90;;;;;;4973636;28;20043;-65
2023/04/18 06:48:22;;;;;;;14.10;10.88;;;7.70;99.90;;;;;;4973433;28;20076;-65
2023/04/18 06:50:48;;;;;;;16.38;10.77;;;7.80;99.90;;;;;;4945893;28;20122;-64
2023/04/18 06:53:14;;;;;;;15.02;11.40;;;7.90;99.90;;;;;;4973966;28;20117;-65
2023/04/18 06:55:41;;;;;;;14.93;11.35;;;7.90;99.90;;;;;;4957422;28;20066;-64
2023/04/18 06:58:08;;;;;;;14.80;11.02;;;8.00;99.90;;;;;;4956477;28;20506;-64
2023/04/18 07:00:35;;;;;;;13.45;10.82;;;8.00;99.90;;;;;;4960431;28;20054;-65
2023/04/18 07:03:04;;;;;;;16.50;10.30;;;8.00;99.90;;;;;;4972777;28;20458;-64
2023/04/18 07:05:30;;;;;;;15.02;10.70;;;8.10;99.90;;;;;;4972879;28;20050;-64
2023/04/18 07:07:56;;;;;;;14.20;10.85;;;8.10;99.90;;;;;;4959081;28;20047;-64
2023/04/18 07:10:23;;;;;;;17.25;12.05;;;8.20;99.90;;;;;;4941406;28;20055;-64
2023/04/18 07:12:53;;;;;;;13.85;11.13;;;8.40;99.90;;;;;;4973116;28;20057;-64
2023/04/18 07:15:19;;;;;;;14.23;11.98;;;8.70;99.90;;;;;;4973222;28;20058;-64
2023/04/18 07:17:45;;;;;;;16.98;11.35;;;9.00;99.90;;;;;;4973250;28;20069;-64
2023/04/18 07:20:11;;;;;;;14.52;11.48;;;9.00;99.90;;;;;;4974310;28;20061;-64
2023/04/18 07:22:38;;;;;;;15.77;10.95;;;9.10;99.90;;;;;;4973076;28;20153;-64
2023/04/18 07:25:04;;;;;;;16.05;9.60;;;9.20;99.90;;;;;;4973375;28;20116;-66
2023/04/18 07:27:34;;;;;;;14.10;10.30;;;9.40;99.90;;;;;;4974298;28;20097;-64
2023/04/18 07:30:01;;;;;;;15.00;11.02;;;9.50;99.90;;;;;;4974692;28;20142;-65
2023/04/18 07:32:27;;;;;;;14.57;10.75;;;9.60;99.90;;;;;;4974415;28;20082;-67
2023/04/18 07:34:56;;;;;;;14.63;11.05;;;9.70;99.90;;;;;;4971826;28;20470;-68
2023/04/18 07:37:22;;;;;;;15.05;11.25;;;9.70;99.90;;;;;;4971549;28;20189;-66
2023/04/18 07:39:50;;;;;;;12.75;10.43;;;10.00;99.90;;;;;;4972470;28;20162;-65
2023/04/18 07:42:16;;;;;;;12.57;9.90;;;10.10;99.90;;;;;;4973510;28;20058;-66
2023/04/18 07:44:43;;;;;;;12.13;9.30;;;10.20;99.90;;;;;;4972121;28;20135;-65
2023/04/18 07:47:09;;;;;;;13.82;11.57;;;10.10;99.90;;;;;;4972990;28;20046;-65
2023/04/18 07:49:36;;;;;;;11.73;9.40;;;10.10;99.90;;;;;;4972709;28;20085;-65
2023/04/18 07:52:03;;;;;;;13.50;10.77;;;10.30;99.90;;;;;;4972255;28;20126;-65
2023/04/18 07:54:30;;;;;;;10.15;8.85;;;10.30;99.90;;;;;;4972475;28;20193;-65
2023/04/18 07:56:58;;;;;;;12.85;9.25;;;10.30;99.90;;;;;;4973155;28;20062;-67
2023/04/18 07:59:24;;;;;;;11.52;9.30;;;10.40;99.90;;;;;;4971637;28;20065;-67
2023/04/18 08:01:50;;;;;;;9.82;8.77;;;10.30;99.90;;;;;;4972667;28;20130;-66
2023/04/18 08:04:16;;;;;;;13.23;9.68;;;10.20;99.90;;;;;;4972728;28;20061;-65
2023/04/18 08:06:43;;;;;;;12.57;9.70;;;10.20;99.90;;;;;;4971842;28;20069;-65
2023/04/18 08:09:09;;;;;;;12.35;8.98;;;10.20;99.90;;;;;;4973149;28;20415;-65
2023/04/18 08:11:35;;;;;;;11.90;9.20;;;10.30;99.90;;;;;;4971561;28;20100;-65
2023/04/18 08:14:02;;;;;;;13.02;9.05;;;10.50;99.90;;;;;;4972216;28;20093;-66
2023/04/18 08:16:28;;;;;;;12.85;9.95;;;10.60;99.90;;;;;;4971805;28;20083;-67
2023/04/18 08:18:54;;;;;;;10.82;8.02;;;10.60;99.90;;;;;;4972150;28;20345;-65
2023/04/18 08:21:21;;;;;;;11.98;7.95;;;10.80;99.90;;;;;;4972108;28;20058;-65
2023/04/18 08:23:47;;;;;;;11.52;8.13;;;10.90;99.90;;;;;;4971931;28;20078;-65
2023/04/18 08:26:13;;;;;;;12.15;9.63;;;10.80;99.90;;;;;;4973295;28;20047;-66
2023/04/18 08:28:40;;;;;;;9.88;8.88;;;10.80;99.90;;;;;;4972478;28;20050;-66
2023/04/18 08:31:10;;;;;;;10.25;8.70;;;10.70;99.90;;;;;;4973511;28;20050;-66
2023/04/18 08:33:37;;;;;;;9.95;7.97;;;10.80;99.90;;;;;;4973367;28;20109;-66
2023/04/18 08:36:03;;;;;;;14.70;9.52;;;10.80;99.90;;;;;;4973475;28;20054;-66
2023/04/18 08:38:29;;;;;;;13.15;10.02;;;10.70;99.90;;;;;;4973286;28;20113;-66
2023/04/18 08:40:56;;;;;;;10.63;8.75;;;10.70;99.90;;;;;;4973659;28;20082;-66
2023/04/18 08:43:24;;;;;;;10.10;8.70;;;10.80;99.90;;;;;;4973532;28;20074;-65
2023/04/18 08:45:51;;;;;;;11.02;8.05;;;11.00;99.90;;;;;;4974783;28;20094;-66
2023/04/18 08:48:17;;;;;;;12.00;8.32;;;11.20;99.90;;;;;;4975287;28;20078;-66
2023/04/18 08:50:44;;;;;;;10.15;7.88;;;11.30;99.90;;;;;;4959512;28;20387;-67
2023/04/18 08:53:10;;;;;;;11.07;8.65;;;11.30;99.90;;;;;;4976750;28;20054;-65
2023/04/18 08:55:37;;;;;;;11.52;8.85;;;11.30;99.90;;;;;;4975373;28;20105;-65
2023/04/18 08:58:36;;;;;;;9.65;8.50;;;11.50;99.90;;;;;;4975661;28;20385;-66
2023/04/18 09:01:02;;;;;;;12.32;9.35;;;11.60;99.90;;;;;;4976236;28;20500;-65
2023/04/18 09:03:41;;;;;;;11.25;9.38;;;11.70;99.90;;;;;;4974878;28;20443;-66
2023/04/18 09:06:11;;;;;;;11.57;10.30;;;11.70;99.90;;;;;;4959291;28;20102;-66
2023/04/18 09:08:37;;;;;;;11.30;9.45;;;11.80;99.90;;;;;;4975210;28;20051;-66
2023/04/18 09:11:30;;;;;;;11.00;9.73;;;11.80;99.90;;;;;;4975705;28;20518;-67
2023/04/18 09:14:01;;;;;;;12.77;10.02;;;11.90;99.90;;;;;;4975007;28;20062;-67
2023/04/18 09:16:28;;;;;;;12.93;9.88;;;12.00;99.90;;;;;;4958738;28;20537;-66
2023/04/18 09:19:27;;;;;;;14.48;9.73;;;12.10;99.90;;;;;;4976409;28;20161;-67
2023/04/18 09:21:59;;;;;;;11.93;9.85;;;12.20;99.90;;;;;;4944043;28;20051;-67
2023/04/18 09:24:27;;;;;;;;;;;12.30;99.90;;;;;;4977187;28;20066;-66
2023/04/18 09:26:55;;;;;;;13.70;9.15;;;12.30;99.90;;;;;;4976006;28;19975;-66
2023/04/18 09:29:44;;;;;;;11.88;9.35;;;12.30;99.90;;;;;;4975795;28;20526;-66
2023/04/18 09:32:23;;;;;;;10.88;9.05;;;12.40;99.90;;;;;;4975548;28;20458;-67
2023/04/18 09:34:53;;;;;;;12.73;9.02;;;12.50;99.90;;;;;;4960196;28;20053;-66
2023/04/18 09:37:20;;;;;;;11.95;8.93;;;12.50;99.90;;;;;;4975411;28;20154;-66
2023/04/18 09:39:46;;;;;;;10.35;9.10;;;12.50;99.90;;;;;;4975469;28;20046;-66
2023/04/18 09:42:13;;;;;;;11.02;7.82;;;12.60;99.90;;;;;;4976480;28;20071;-66
2023/04/18 09:45:06;;;;;;;12.15;9.52;;;12.60;99.90;;;;;;4974871;28;20086;-67
2023/04/18 09:47:35;;;;;;;11.65;9.10;;;12.40;99.90;;;;;;4973836;28;20130;-65
2023/04/18 09:50:06;;;;;;;12.48;8.85;;;12.60;99.90;;;;;;4974707;28;20451;-66
2023/04/18 09:52:34;;;;;;;;;;;12.50;99.90;;;;;;4955465;29;20078;-67
2023/04/18 09:55:11;;;;;;;13.43;10.70;;;12.30;99.90;;;;;;4956489;28;19973;-66
2023/04/18 09:57:41;;;;;;;11.77;9.95;;;12.10;99.90;;;;;;4953918;28;20055;-66
2023/04/18 10:00:16;;;;;;;12.48;10.23;;;12.10;99.90;;;;;;4955915;28;20481;-65
2023/04/18 10:03:08;;;;;;;11.77;9.60;;;12.20;99.90;;;;;;4973682;28;20086;-65
2023/04/18 10:05:37;;;;;;;14.27;10.07;;;12.30;99.90;;;;;;4974172;28;20130;-66
2023/04/18 10:08:05;;;;;;;12.70;9.50;;;12.40;99.90;;;;;;4973969;28;20082;-65
2023/04/18 10:10:32;;;;;;;11.93;9.32;;;12.50;99.90;;;;;;4975385;28;20057;-65
2023/04/18 10:13:00;;;;;;;12.63;10.98;;;12.50;99.90;;;;;;4975331;28;20053;-65
2023/04/18 10:15:28;;;;;;;11.90;10.05;;;12.60;99.90;;;;;;4980244;28;20085;-64
2023/04/18 10:18:05;;;;;;;13.13;9.68;;;12.60;99.90;;;;;;4977276;28;20054;-65
2023/04/18 10:20:33;;;;;;;15.65;10.93;;;12.50;99.90;;;;;;4993936;28;20451;-66
2023/04/18 10:23:36;;;;;;;13.95;11.35;;;12.60;99.90;;;;;;4994566;28;20054;-66
2023/04/18 10:26:06;;;;;;;11.70;9.52;;;12.70;99.90;;;;;;4994503;28;20046;-65
2023/04/18 10:28:53;;;;;;;14.43;10.98;;;12.80;99.90;;;;;;4994098;28;20061;-64
2023/04/18 10:31:24;;;;;;;15.38;12.25;;;12.80;99.90;;;;;;4977199;28;20046;-64
2023/04/18 10:33:58;;;;;;;16.58;12.75;;;12.80;99.90;;;;;;4994590;28;20058;-65
2023/04/18 10:36:26;;;;;;;14.52;11.05;;;13.10;99.90;;;;;;4994547;28;20065;-64
2023/04/18 10:38:55;;;;;;;14.43;11.77;;;13.20;99.90;;;;;;4977144;28;20143;-65
2023/04/18 10:41:22;;;;;;;16.20;11.27;;;13.40;99.90;;;;;;4977028;28;20538;-65
2023/04/18 10:44:13;;;;;;;14.20;12.02;;;13.50;99.90;;;;;;4976934;28;20077;-64
2023/04/18 10:46:51;;;;;;;12.82;10.27;;;13.60;99.90;;;;;;4993928;28;20046;-65
2023/04/18 10:49:17;;;;;;;13.32;11.30;;;13.80;99.90;;;;;;4976488;28;20469;-65
2023/04/18 10:51:45;;;;;;;13.90;11.13;;;13.90;99.90;;;;;;4973223;28;20426;-67
2023/04/18 10:54:42;;;;;;;13.88;10.30;;;14.10;99.90;;;;;;4974919;28;20062;-65
2023/04/18 10:57:10;;;;;;;15.32;10.93;;;14.30;99.90;;;;;;4973555;28;20086;-66
2023/04/18 10:59:38;;;;;;;14.00;10.60;;;14.20;99.90;;;;;;4973524;28;20552;-66
2023/04/18 11:02:31;;;;;;;14.85;10.80;;;14.10;99.90;;;;;;4974670;28;20463;-65
2023/04/18 11:05:05;;;;;;;11.50;9.55;;;13.90;99.90;;;;;;4972746;28;20505;-65
2023/04/18 11:07:35;;;;;;;13.90;10.23;;;13.90;99.90;;;;;;4957245;28;20082;-65
2023/04/18 11:10:03;;;;;;;13.60;10.07;;;13.80;99.90;;;;;;4973292;28;20050;-66
2023/04/18 11:12:31;;;;;;;14.05;9.65;;;13.70;99.90;;;;;;4974629;28;20054;-66
2023/04/18 11:15:00;;;;;;;12.10;9.65;;;13.60;99.90;;;;;;4959872;28;20051;-65
2023/04/18 11:17:34;;;;;;;13.77;9.27;;;13.70;99.90;;;;;;4995675;28;20119;-65
2023/04/18 11:20:10;;;;;;;12.25;9.25;;;13.50;99.90;;;;;;4995560;28;20135;-66
2023/04/18 11:23:14;;;;;;;12.13;10.38;;;13.50;99.90;;;;;;4995927;28;20084;-65
2023/04/18 11:25:43;;;;;;;12.18;9.60;;;13.50;99.90;;;;;;5001308;28;20061;-66
2023/04/18 11:28:12;;;;;;;12.48;10.27;;;13.60;99.90;;;;;;5013212;28;20042;-64
2023/04/18 11:30:40;;;;;;;12.77;9.68;;;13.70;99.90;;;;;;4994666;28;20042;-65
2023/04/18 11:33:08;;;;;;;10.68;9.27;;;13.60;99.90;;;;;;4996166;28;20112;-66
2023/04/18 11:35:43;;;;;;;13.50;9.75;;;13.60;99.90;;;;;;5012709;28;20045;-65
2023/04/18 11:38:12;;;;;;;13.70;9.32;;;13.70;99.90;;;;;;4995309;28;20085;-66
2023/04/18 11:40:45;;;;;;;13.77;10.27;;;13.80;99.90;;;;;;5012605;28;20129;-66
2023/04/18 11:43:22;;;;;;;12.65;11.35;;;13.90;99.90;;;;;;5013029;28;20050;-67
2023/04/18 11:45:56;;;;;;;12.50;10.38;;;14.00;99.90;;;;;;5012940;28;20049;-66
2023/04/18 11:48:46;;;;;;;12.20;10.55;;;13.90;99.90;;;;;;4995225;28;20390;-66
2023/04/18 11:51:33;;;;;;;12.85;9.75;;;14.10;99.90;;;;;;4984252;28;20068;-66
2023/04/18 11:53:59;;;;;;;13.30;10.52;;;14.50;99.90;;;;;;4994873;28;20092;-67
2023/04/18 11:56:25;;;;;;;15.13;11.30;;;14.40;99.90;;;;;;5012208;28;20085;-66
2023/04/18 11:58:52;;;;;;;13.45;10.88;;;14.40;99.90;;;;;;5012801;28;20049;-67
2023/04/18 12:01:20;;;;;;;14.27;11.75;;;14.50;99.90;;;;;;5012514;28;20050;-65
2023/04/18 12:04:05;;;;;;;13.48;10.07;;;14.30;99.90;;;;;;4995545;28;20045;-65
2023/04/18 12:06:52;;;;;;;12.77;10.23;;;14.30;99.90;;;;;;4995153;28;20385;-66
2023/04/18 12:09:21;;;;;;;12.90;10.90;;;14.20;99.90;;;;;;5012500;28;20054;-67
2023/04/18 12:11:58;;;;;;;14.13;11.07;;;14.10;99.90;;;;;;5003210;28;20054;-66
2023/04/18 12:14:24;;;;;;;13.43;11.70;;;14.10;99.90;;;;;;4975716;28;20129;-66
2023/04/18 12:16:51;;;;;;;12.30;10.40;;;14.20;99.90;;;;;;4972238;28;20070;-66
2023/04/18 12:19:19;;;;;;;13.40;12.00;;;14.10;99.90;;;;;;4972001;28;20086;-66
2023/04/18 12:22:03;;;;;;;12.38;10.93;;;14.10;99.90;;;;;;4975919;28;20100;-66
2023/04/18 12:24:31;;;;;;;11.50;9.95;;;14.10;99.90;;;;;;4976101;28;20129;-66
2023/04/18 12:27:00;;;;;;;12.07;10.88;;;14.10;99.90;;;;;;4976364;28;20093;-66
2023/04/18 12:29:27;;;;;;;12.48;11.15;;;14.10;99.90;;;;;;4976198;28;20086;-66
2023/04/18 12:31:54;;;;;;;13.20;11.68;;;14.20;99.90;;;;;;4976611;28;20070;-66
2023/04/18 12:34:20;;;;;;;12.23;10.45;;;14.10;99.90;;;;;;4960059;28;20057;-66
2023/04/18 12:36:47;;;;;;;12.23;10.60;;;14.00;99.90;;;;;;4975794;28;20128;-66
2023/04/18 12:39:13;;;;;;;13.52;10.50;;;14.10;99.90;;;;;;4975915;28;20370;-67
2023/04/18 12:41:39;;;;;;;14.02;11.43;;;14.20;99.90;;;;;;4977174;28;20101;-66
2023/04/18 12:44:05;;;;;;;11.30;9.63;;;14.40;99.90;;;;;;4976297;28;20047;-66
2023/04/18 12:46:31;;;;;;;13.35;10.73;;;14.60;99.90;;;;;;4976083;28;20082;-65
2023/04/18 12:48:59;;;;;;;12.10;10.13;;;14.70;99.90;;;;;;4975919;28;20058;-66